Illiopolis, IL (62539)

4:12 PM CDT on September 04, 2015 (GMT -0500)
S. Lanesville | | Change Station
CLOSE
Current Station
Personal Weather Station
Location: Mechanicsburg, IL
Elevation: 591 ft
Nearby Weather Stations

Elev 591 ft 39.85 °N, 89.35 °W | Updated 7 minutes ago

Clear
Clear
94.3 °F
Feels Like 98 °F
N
5.0
Wind Variable Wind from WSW
Gusts 11.0 mph

Today
High -- | Low -- °F
--% Chance of Precip.
Yesterday
High -- | Low -- °F
Precip. -- in
6:27 AM 7:23 PM
Waning Gibbous, 56% visible
Pressure 29.97 in
Visibility 10.0 miles
Clouds Clear
Heat Index 98 °F
Dew Point 67 °F
Humidity 40%
Rainfall 0.00 in
Snow Depth Not available.
UV 5 out of 12
Pollen 10.10 out of 12
Air Quality Not available.
Flu Activity Not available.
METAR KDEC 042054Z VRB05KT 10SM CLR 34/18 A2999 RMK AO2 SLP147 T03440183 58012
Pressure 29.97 in
Visibility 10.0 miles
Clouds Clear
Heat Index 98 °F
Dew Point 67 °F
Humidity 40%
Rainfall 0.00 in
Snow Depth Not available.
UV 5 out of 12
Pollen 10.10 out of 12
Air Quality Not available.
Flu Activity Not available.
METAR KDEC 042054Z VRB05KT 10SM CLR 34/18 A2999 RMK AO2 SLP147 T03440183 58012

10-Day Weather Forecast

×

Almanac

Astronomy

Sep. 04, 2015 Rise Set
Actual Time
Civil Twilight
Nautical Twilight
Astronomical Twilight
Moon
Length of Visible Light
Length of Day
Tomorrow will be .
, % of the Moon is Illuminated

Today's Extremes

State Highs State Lows

Community

WunderPhotos

Upload Photos

1,852,296 photos uploaded!

WunderBlogs® & News

Nearby

Air Quality

  Air Quality AQ Index Pollutant
Not available.

Snow Depth

Station Depth Elevation

Earthquake Activity

City Distance Mag. Time & Date
Minimum magnitude displayed is 2.5.

Coastal Water Temperatures

Place Temperature

Stations

Nearby Weather Stations

Station Location Temp. Windchill Dew Point Humidity Wind Precip. Elev Updated Type